Time;durP1;ratioP1;P1;durP2;ratioP2;P2;SDS_P1;SDS_P2;PMS_P1;PMS_P2;Temp;Humidity;BMP_temperature;BMP_pressure;BME280_temperature;BME280_humidity;BME280_pressure;Samples;Min_cycle;Max_cycle;Signal;HPM_P1;HPM_P2
2022/03/20 00:00:33;;;;;;;9.05;3.42;;;;;;;;;;5030139;28;20606;-76
2022/03/20 00:02:59;;;;;;;8.52;3.75;;;;;;;;;;5028521;28;20037;-75
2022/03/20 00:05:25;;;;;;;9.10;3.88;;;;;;;;;;5028064;28;20546;-77
2022/03/20 00:07:51;;;;;;;8.68;4.55;;;;;;;;;;5030279;28;20041;-76
2022/03/20 00:10:17;;;;;;;8.15;4.90;;;;;;;;;;5031399;28;20025;-74
2022/03/20 00:12:43;;;;;;;10.93;4.47;;;;;;;;;;5029242;28;20056;-74
2022/03/20 00:15:10;;;;;;;7.72;4.40;;;;;;;;;;5028797;28;20076;-75
2022/03/20 00:17:36;;;;;;;10.05;5.25;;;;;;;;;;5031459;28;20479;-74
2022/03/20 00:20:04;;;;;;;10.25;4.95;;;;;;;;;;5029238;28;20044;-76
2022/03/20 00:22:31;;;;;;;11.75;5.28;;;;;;;;;;5029520;28;20056;-75
2022/03/20 00:24:58;;;;;;;9.52;5.50;;;;;;;;;;5005237;28;20069;-75
2022/03/20 00:27:25;;;;;;;9.02;5.22;;;;;;;;;;5011338;28;20040;-76
2022/03/20 00:29:51;;;;;;;10.10;5.72;;;;;;;;;;5010948;28;20085;-76
2022/03/20 00:32:19;;;;;;;10.30;5.93;;;;;;;;;;5011647;28;20522;-75
2022/03/20 00:34:45;;;;;;;12.73;7.22;;;;;;;;;;5009429;28;20033;-74
2022/03/20 00:37:11;;;;;;;10.05;5.78;;;;;;;;;;4993002;28;20203;-76
2022/03/20 00:39:38;;;;;;;14.85;6.68;;;;;;;;;;5010739;28;20044;-74
2022/03/20 00:42:04;;;;;;;11.95;6.68;;;;;;;;;;5010905;28;20488;-76
2022/03/20 00:44:30;;;;;;;12.68;7.10;;;;;;;;;;5004853;28;20022;-76
2022/03/20 00:46:56;;;;;;;13.90;7.65;;;;;;;;;;5009684;28;20026;-76
2022/03/20 00:49:22;;;;;;;12.88;8.05;;;;;;;;;;5010289;28;20113;-75
2022/03/20 00:51:49;;;;;;;14.27;7.65;;;;;;;;;;5010355;28;20551;-77
2022/03/20 00:54:15;;;;;;;14.00;7.97;;;;;;;;;;5009428;28;20033;-75
2022/03/20 00:56:41;;;;;;;15.77;7.82;;;;;;;;;;5010049;28;20105;-76
2022/03/20 00:59:07;;;;;;;15.02;8.02;;;;;;;;;;5010324;28;20042;-77
2022/03/20 01:01:33;;;;;;;17.75;8.82;;;;;;;;;;5008576;28;20029;-76
2022/03/20 01:03:59;;;;;;;17.27;8.95;;;;;;;;;;5008115;28;20045;-76
2022/03/20 01:06:25;;;;;;;17.27;8.93;;;;;;;;;;5010341;28;20064;-78
2022/03/20 01:08:52;;;;;;;19.15;8.50;;;;;;;;;;5008444;28;20034;-76
2022/03/20 01:11:19;;;;;;;18.27;8.93;;;;;;;;;;5009661;28;20034;-75
2022/03/20 01:13:45;;;;;;;16.38;9.60;;;;;;;;;;5008051;28;20030;-75
2022/03/20 01:16:12;;;;;;;19.10;9.85;;;;;;;;;;5009583;28;20033;-76
2022/03/20 01:18:39;;;;;;;19.35;10.15;;;;;;;;;;5006796;28;20332;-75
2022/03/20 01:21:06;;;;;;;17.50;10.20;;;;;;;;;;4993017;28;20435;-75
2022/03/20 01:23:34;;;;;;;16.55;10.18;;;;;;;;;;5017583;28;20119;-75
2022/03/20 01:26:01;;;;;;;17.80;10.23;;;;;;;;;;5025159;28;20075;-76
2022/03/20 01:28:27;;;;;;;18.58;10.05;;;;;;;;;;5029534;28;20120;-76
2022/03/20 01:30:55;;;;;;;20.23;11.55;;;;;;;;;;5027985;28;20057;-76
2022/03/20 01:33:21;;;;;;;18.75;11.30;;;;;;;;;;5029224;28;20022;-75
2022/03/20 01:35:47;;;;;;;16.85;10.73;;;;;;;;;;5029237;28;20025;-76
2022/03/20 01:38:19;;;;;;;19.30;11.05;;;;;;;;;;5028533;28;20041;-75
2022/03/20 01:40:46;;;;;;;19.92;11.25;;;;;;;;;;5029504;28;20557;-76
2022/03/20 01:43:12;;;;;;;21.10;12.00;;;;;;;;;;5029026;28;20025;-74
2022/03/20 01:45:38;;;;;;;21.95;11.55;;;;;;;;;;5029694;28;20444;-76
2022/03/20 01:48:04;;;;;;;18.20;11.10;;;;;;;;;;5029942;28;20518;-76
2022/03/20 01:50:32;;;;;;;18.88;11.40;;;;;;;;;;5028689;28;20056;-76
2022/03/20 01:52:58;;;;;;;20.42;11.77;;;;;;;;;;5029105;28;20557;-76
2022/03/20 01:55:25;;;;;;;20.52;11.43;;;;;;;;;;5028775;28;20392;-74
2022/03/20 01:57:51;;;;;;;23.08;11.85;;;;;;;;;;5029819;28;20041;-77
2022/03/20 02:00:19;;;;;;;20.02;11.73;;;;;;;;;;5028397;28;20025;-76
2022/03/20 02:02:46;;;;;;;19.83;11.65;;;;;;;;;;5029043;28;20021;-77
2022/03/20 02:05:12;;;;;;;18.00;11.02;;;;;;;;;;5027082;28;20040;-76
2022/03/20 02:07:40;;;;;;;18.52;11.00;;;;;;;;;;5025559;28;20180;-76
2022/03/20 02:10:06;;;;;;;23.60;12.15;;;;;;;;;;5027182;28;20482;-75
2022/03/20 02:12:32;;;;;;;23.52;11.52;;;;;;;;;;5021970;28;20017;-74
2022/03/20 02:15:01;;;;;;;18.77;11.52;;;;;;;;;;5028175;28;20079;-75
2022/03/20 02:17:29;;;;;;;22.27;11.93;;;;;;;;;;5025897;28;20022;-75
2022/03/20 02:19:56;;;;;;;20.38;11.90;;;;;;;;;;5023904;28;20037;-76
2022/03/20 02:22:22;;;;;;;22.23;12.18;;;;;;;;;;5024972;28;20491;-75
2022/03/20 02:24:49;;;;;;;23.58;11.90;;;;;;;;;;5026590;28;20045;-75
2022/03/20 02:27:23;;;;;;;16.75;10.85;;;;;;;;;;5023217;28;20561;-76
2022/03/20 02:29:52;;;;;;;20.58;11.23;;;;;;;;;;5028323;28;20029;-73
2022/03/20 02:32:20;;;;;;;24.85;11.30;;;;;;;;;;5028623;28;20025;-75
2022/03/20 02:34:49;;;;;;;21.88;11.48;;;;;;;;;;5027180;28;20029;-74
2022/03/20 02:37:19;;;;;;;21.35;10.85;;;;;;;;;;5025981;28;20131;-74
2022/03/20 02:39:46;;;;;;;23.80;10.80;;;;;;;;;;5028222;28;20394;-75
2022/03/20 02:42:13;;;;;;;21.85;9.40;;;;;;;;;;5028377;28;20072;-73
2022/03/20 02:45:00;;;;;;;18.50;10.18;;;;;;;;;;5027275;28;20029;-75
2022/03/20 02:47:30;;;;;;;21.15;10.45;;;;;;;;;;5027910;28;20036;-75
2022/03/20 02:49:57;;;;;;;21.67;9.65;;;;;;;;;;5028313;28;20068;-74
2022/03/20 02:52:31;;;;;;;20.30;9.88;;;;;;;;;;5027864;28;20030;-75
2022/03/20 02:55:00;;;;;;;25.63;9.35;;;;;;;;;;5028550;28;20068;-75
2022/03/20 02:57:27;;;;;;;18.75;10.00;;;;;;;;;;5026697;28;20109;-76
2022/03/20 02:59:53;;;;;;;18.65;9.20;;;;;;;;;;5026763;28;20544;-76
2022/03/20 03:02:19;;;;;;;18.63;9.50;;;;;;;;;;5028066;28;20038;-74
2022/03/20 03:04:45;;;;;;;18.67;9.63;;;;;;;;;;5029626;28;20052;-76
2022/03/20 03:07:11;;;;;;;19.98;10.25;;;;;;;;;;5029372;28;20121;-74
2022/03/20 03:12:22;;;;;;;22.13;10.07;;;;;;;;;;5031222;28;20047;-75
2022/03/20 03:17:34;;;;;;;19.92;10.45;;;;;;;;;;5028247;28;20410;-77
2022/03/20 03:20:00;;;;;;;19.52;11.80;;;;;;;;;;5028699;28;20041;-76
2022/03/20 03:22:26;;;;;;;20.35;10.63;;;;;;;;;;5028352;28;20037;-75
2022/03/20 03:24:55;;;;;;;21.52;11.20;;;;;;;;;;5028197;28;20041;-75
2022/03/20 03:27:22;;;;;;;20.83;11.15;;;;;;;;;;5031821;28;20109;-75
2022/03/20 03:29:48;;;;;;;20.42;10.38;;;;;;;;;;5031906;28;20037;-75
2022/03/20 03:32:14;;;;;;;23.08;11.02;;;;;;;;;;5032004;28;20040;-73
2022/03/20 03:37:25;;;;;;;20.95;11.40;;;;;;;;;;5031646;28;20660;-77
2022/03/20 03:39:51;;;;;;;26.02;12.38;;;;;;;;;;5031090;28;20044;-76
2022/03/20 03:42:17;;;;;;;26.60;12.15;;;;;;;;;;5029583;28;20022;-77
2022/03/20 03:44:43;;;;;;;20.98;11.75;;;;;;;;;;5029512;28;20025;-76
2022/03/20 03:47:09;;;;;;;27.00;12.57;;;;;;;;;;5029701;28;20099;-77
2022/03/20 03:49:35;;;;;;;26.10;12.32;;;;;;;;;;5029247;28;20120;-76
2022/03/20 03:52:02;;;;;;;19.52;12.32;;;;;;;;;;5030519;28;20747;-76
2022/03/20 03:54:28;;;;;;;23.33;13.05;;;;;;;;;;5029235;28;20105;-75
2022/03/20 03:56:54;;;;;;;28.00;13.98;;;;;;;;;;5029527;28;20101;-75
2022/03/20 03:59:20;;;;;;;22.60;12.75;;;;;;;;;;5029789;28;20033;-76
2022/03/20 04:01:47;;;;;;;26.90;13.90;;;;;;;;;;5030391;28;20030;-75
2022/03/20 04:04:14;;;;;;;27.25;14.73;;;;;;;;;;5030558;28;20033;-74
2022/03/20 04:06:40;;;;;;;24.77;13.43;;;;;;;;;;5030897;28;20025;-75
2022/03/20 04:09:06;;;;;;;27.17;13.32;;;;;;;;;;5030522;28;20040;-76
2022/03/20 04:11:32;;;;;;;25.30;14.10;;;;;;;;;;5030583;28;20041;-76
2022/03/20 04:13:58;;;;;;;22.40;12.77;;;;;;;;;;5031376;28;20574;-75
2022/03/20 04:16:24;;;;;;;22.77;13.75;;;;;;;;;;5030493;28;20025;-76
2022/03/20 04:18:53;;;;;;;26.45;13.50;;;;;;;;;;5029324;28;20124;-76
2022/03/20 04:21:19;;;;;;;30.35;14.00;;;;;;;;;;5028059;28;20108;-74
2022/03/20 04:23:45;;;;;;;25.67;13.88;;;;;;;;;;5029980;28;20049;-75
2022/03/20 04:26:17;;;;;;;28.55;14.30;;;;;;;;;;5030376;28;20120;-75
2022/03/20 04:28:44;;;;;;;23.38;14.10;;;;;;;;;;5028767;28;20432;-76
2022/03/20 04:31:15;;;;;;;27.85;13.60;;;;;;;;;;5030807;28;20063;-77
2022/03/20 04:33:48;;;;;;;26.13;14.52;;;;;;;;;;5032410;28;20099;-75
2022/03/20 04:36:15;;;;;;;26.83;14.43;;;;;;;;;;5032053;28;20100;-78
2022/03/20 04:38:41;;;;;;;23.80;13.07;;;;;;;;;;5030618;28;20030;-75
2022/03/20 04:41:07;;;;;;;27.60;14.25;;;;;;;;;;5029420;28;20510;-76
2022/03/20 04:43:33;;;;;;;30.13;16.00;;;;;;;;;;5029414;28;20497;-76
2022/03/20 04:45:59;;;;;;;29.77;15.20;;;;;;;;;;5029676;28;20030;-75
2022/03/20 04:59:26;;;;;;;27.63;15.30;;;;;;;;;;5031028;28;20051;-75
2022/03/20 05:01:52;;;;;;;32.28;15.52;;;;;;;;;;5030804;28;20071;-76
2022/03/20 05:04:18;;;;;;;31.08;15.15;;;;;;;;;;5029500;28;20037;-76
2022/03/20 05:06:44;;;;;;;26.42;15.40;;;;;;;;;;5028891;28;20044;-75
2022/03/20 05:14:39;;;;;;;27.45;14.70;;;;;;;;;;5027331;28;20056;-75
2022/03/20 05:17:06;;;;;;;29.02;16.35;;;;;;;;;;5030026;28;20516;-77
2022/03/20 05:19:40;;;;;;;35.25;14.52;;;;;;;;;;5027214;28;20083;-76
2022/03/20 05:22:10;;;;;;;31.00;15.43;;;;;;;;;;5030528;28;20029;-74
2022/03/20 05:24:36;;;;;;;30.80;15.57;;;;;;;;;;5029118;28;20041;-76
2022/03/20 05:27:02;;;;;;;30.38;15.40;;;;;;;;;;5029496;28;20032;-75
2022/03/20 05:29:28;;;;;;;26.92;15.80;;;;;;;;;;5027959;28;20032;-77
2022/03/20 05:31:55;;;;;;;29.83;16.58;;;;;;;;;;5012000;28;20052;-75
2022/03/20 05:34:22;;;;;;;28.48;15.85;;;;;;;;;;5028938;28;20026;-75
2022/03/20 05:36:48;;;;;;;33.80;16.73;;;;;;;;;;5012036;28;20033;-76
2022/03/20 05:39:14;;;;;;;27.92;16.40;;;;;;;;;;5025956;28;20053;-76
2022/03/20 05:41:46;;;;;;;28.73;16.13;;;;;;;;;;5029268;28;20017;-75
2022/03/20 05:44:18;;;;;;;32.78;16.30;;;;;;;;;;5027540;28;20548;-75
2022/03/20 05:46:46;;;;;;;31.52;16.92;;;;;;;;;;5026568;28;20111;-76
2022/03/20 05:49:15;;;;;;;26.95;15.95;;;;;;;;;;5023168;28;20056;-77
2022/03/20 05:51:42;;;;;;;29.10;16.27;;;;;;;;;;5028795;28;20034;-74
2022/03/20 05:54:09;;;;;;;31.13;17.52;;;;;;;;;;5028198;28;20026;-76
2022/03/20 05:59:19;;;;;;;33.03;16.05;;;;;;;;;;5022042;28;20044;-74
2022/03/20 06:01:46;;;;;;;30.98;17.15;;;;;;;;;;5028340;28;20036;-76
2022/03/20 06:04:13;;;;;;;31.10;16.33;;;;;;;;;;5028448;28;20022;-75
2022/03/20 06:06:40;;;;;;;33.50;17.10;;;;;;;;;;5028372;28;20033;-77
2022/03/20 06:09:06;;;;;;;32.20;16.30;;;;;;;;;;5026713;28;20249;-76
2022/03/20 06:11:34;;;;;;;33.38;16.42;;;;;;;;;;5027680;28;20030;-76
2022/03/20 06:14:00;;;;;;;31.90;17.40;;;;;;;;;;5026535;28;20534;-76
2022/03/20 06:16:28;;;;;;;33.40;15.68;;;;;;;;;;5028217;28;20045;-77
2022/03/20 06:18:54;;;;;;;30.60;17.17;;;;;;;;;;5027006;28;20056;-76
2022/03/20 06:21:20;;;;;;;32.28;17.40;;;;;;;;;;5029197;28;20392;-75
2022/03/20 06:23:46;;;;;;;28.00;16.25;;;;;;;;;;5028411;28;20160;-76
2022/03/20 06:26:13;;;;;;;29.50;16.80;;;;;;;;;;5028606;28;20104;-76
2022/03/20 06:28:40;;;;;;;32.30;17.42;;;;;;;;;;5027452;28;20124;-73
2022/03/20 06:31:10;;;;;;;32.25;17.33;;;;;;;;;;5027554;28;20021;-75
2022/03/20 06:33:37;;;;;;;29.90;16.33;;;;;;;;;;5028215;28;20076;-74
2022/03/20 06:36:04;;;;;;;29.05;16.02;;;;;;;;;;5028116;28;20022;-75
2022/03/20 06:38:35;;;;;;;31.05;17.25;;;;;;;;;;5029245;28;20052;-74
2022/03/20 06:41:03;;;;;;;33.05;17.60;;;;;;;;;;5027371;28;20126;-77
2022/03/20 06:43:29;;;;;;;30.77;17.35;;;;;;;;;;5027371;28;20030;-73
2022/03/20 06:45:56;;;;;;;30.55;17.80;;;;;;;;;;5028052;28;20119;-75
2022/03/20 06:48:22;;;;;;;32.75;17.20;;;;;;;;;;5025840;28;20025;-76
2022/03/20 06:50:48;;;;;;;33.45;17.50;;;;;;;;;;5026567;28;20052;-75
2022/03/20 06:53:15;;;;;;;33.05;17.50;;;;;;;;;;5028344;28;20033;-76
2022/03/20 06:55:41;;;;;;;39.22;18.35;;;;;;;;;;5028478;28;20072;-73
2022/03/20 06:58:07;;;;;;;30.33;16.85;;;;;;;;;;5026647;28;20117;-76
2022/03/20 07:00:33;;;;;;;31.88;17.08;;;;;;;;;;5030068;28;20035;-74
2022/03/20 07:03:00;;;;;;;32.33;17.55;;;;;;;;;;5032204;28;20087;-75
2022/03/20 07:05:26;;;;;;;32.55;17.30;;;;;;;;;;5031271;28;20499;-76
2022/03/20 07:07:53;;;;;;;32.60;18.15;;;;;;;;;;5029557;28;20483;-73
2022/03/20 07:10:24;;;;;;;33.88;17.40;;;;;;;;;;5030388;28;20116;-76
2022/03/20 07:12:51;;;;;;;34.30;17.73;;;;;;;;;;5028818;28;20037;-72
2022/03/20 07:15:20;;;;;;;33.35;17.25;;;;;;;;;;5028697;28;20029;-76
2022/03/20 07:17:48;;;;;;;31.25;16.67;;;;;;;;;;5030395;28;20471;-76
2022/03/20 07:20:16;;;;;;;31.48;18.00;;;;;;;;;;5031059;28;20026;-76
2022/03/20 07:22:43;;;;;;;32.22;17.27;;;;;;;;;;5031812;28;20029;-76
2022/03/20 07:30:42;;;;;;;34.55;17.27;;;;;;;;;;5031827;28;20040;-76
2022/03/20 07:33:11;;;;;;;31.02;17.88;;;;;;;;;;5029692;28;20037;-77
2022/03/20 07:35:38;;;;;;;33.85;17.65;;;;;;;;;;5032362;28;20021;-78
2022/03/20 07:38:04;;;;;;;33.80;17.13;;;;;;;;;;5031963;28;20095;-76
2022/03/20 07:40:30;;;;;;;35.38;19.02;;;;;;;;;;5029114;28;20038;-76
2022/03/20 07:42:56;;;;;;;32.58;17.40;;;;;;;;;;5030103;28;20163;-75
2022/03/20 07:45:22;;;;;;;33.33;18.02;;;;;;;;;;5031076;28;20116;-76
2022/03/20 07:47:49;;;;;;;34.22;17.20;;;;;;;;;;5031782;28;20137;-76
2022/03/20 07:50:15;;;;;;;36.08;18.00;;;;;;;;;;5030392;28;20028;-74
2022/03/20 07:52:41;;;;;;;30.60;18.55;;;;;;;;;;5030907;28;20034;-73
2022/03/20 07:55:07;;;;;;;32.15;17.95;;;;;;;;;;5027662;28;20113;-74
2022/03/20 07:57:39;;;;;;;35.72;18.10;;;;;;;;;;5030867;28;20067;-73
2022/03/20 08:00:06;;;;;;;41.33;19.85;;;;;;;;;;5028286;28;20025;-74
2022/03/20 08:02:32;;;;;;;37.40;18.10;;;;;;;;;;5029131;28;20033;-74
2022/03/20 08:04:58;;;;;;;36.15;18.80;;;;;;;;;;5030297;28;20029;-73
2022/03/20 08:07:24;;;;;;;34.67;17.55;;;;;;;;;;5030386;28;21807;-74
2022/03/20 08:09:50;;;;;;;31.58;18.08;;;;;;;;;;5028261;28;20063;-75
2022/03/20 08:12:16;;;;;;;36.15;18.52;;;;;;;;;;5031223;28;20033;-74
2022/03/20 08:14:44;;;;;;;36.47;17.92;;;;;;;;;;5031663;28;20072;-73
2022/03/20 08:17:10;;;;;;;34.17;20.33;;;;;;;;;;5013003;28;20029;-75
2022/03/20 08:19:36;;;;;;;35.80;18.15;;;;;;;;;;5029167;28;20092;-74
2022/03/20 08:22:05;;;;;;;33.28;18.92;;;;;;;;;;5030022;28;20042;-75
2022/03/20 08:24:31;;;;;;;35.20;20.00;;;;;;;;;;5030329;28;20038;-74
2022/03/20 08:26:57;;;;;;;32.65;17.95;;;;;;;;;;5028207;28;20041;-73
2022/03/20 08:29:25;;;;;;;32.80;18.10;;;;;;;;;;5027700;28;20048;-75
2022/03/20 08:31:54;;;;;;;35.20;19.15;;;;;;;;;;5028007;28;20033;-74
2022/03/20 08:34:20;;;;;;;37.38;19.30;;;;;;;;;;5030594;28;20029;-73
2022/03/20 08:36:46;;;;;;;30.45;18.73;;;;;;;;;;5030256;28;20487;-74
2022/03/20 08:39:13;;;;;;;35.00;19.23;;;;;;;;;;5030034;28;20076;-74
2022/03/20 08:41:39;;;;;;;32.00;17.60;;;;;;;;;;5030020;28;20052;-74
2022/03/20 08:44:05;;;;;;;41.75;19.70;;;;;;;;;;5029067;28;20427;-74
2022/03/20 08:46:32;;;;;;;33.83;19.33;;;;;;;;;;5030742;28;20105;-74
2022/03/20 08:48:58;;;;;;;32.83;18.27;;;;;;;;;;5029617;28;20487;-73
2022/03/20 08:51:24;;;;;;;37.78;19.63;;;;;;;;;;5030607;28;20042;-74
2022/03/20 08:53:51;;;;;;;38.90;19.55;;;;;;;;;;5026928;28;20061;-75
2022/03/20 08:56:17;;;;;;;36.72;19.85;;;;;;;;;;5029560;28;20090;-73
2022/03/20 08:58:44;;;;;;;38.38;20.92;;;;;;;;;;5027187;28;20048;-75
2022/03/20 09:01:10;;;;;;;44.17;20.30;;;;;;;;;;5030443;28;20042;-74
2022/03/20 09:03:36;;;;;;;33.80;18.98;;;;;;;;;;5031242;28;20478;-73
2022/03/20 09:06:02;;;;;;;35.45;19.42;;;;;;;;;;5031092;28;20052;-74
2022/03/20 09:08:28;;;;;;;43.20;20.38;;;;;;;;;;5028803;28;20033;-72
2022/03/20 09:10:54;;;;;;;35.85;20.80;;;;;;;;;;5030407;28;20552;-76
2022/03/20 09:13:20;;;;;;;32.47;18.75;;;;;;;;;;5028750;28;20082;-74
2022/03/20 09:18:58;;;;;;;35.95;21.05;;;;;;;;;;5030636;28;20111;-74
2022/03/20 09:19:18;;;;;;;35.95;20.42;;;;;;;;;;5029101;28;20435;-74
2022/03/20 09:21:18;;;;;;;35.13;20.60;;;;;;;;;;5025890;28;20057;-75
2022/03/20 09:23:44;;;;;;;35.42;20.58;;;;;;;;;;5029215;28;20057;-74
2022/03/20 09:26:10;;;;;;;38.33;21.33;;;;;;;;;;5030029;28;20034;-74
2022/03/20 09:28:36;;;;;;;41.10;21.00;;;;;;;;;;5027762;28;20064;-75
2022/03/20 09:31:02;;;;;;;38.13;21.10;;;;;;;;;;5030876;28;20456;-75
2022/03/20 09:33:29;;;;;;;40.00;21.60;;;;;;;;;;5030056;28;20029;-75
2022/03/20 09:35:55;;;;;;;40.25;22.08;;;;;;;;;;5027215;28;20129;-76
2022/03/20 09:38:23;;;;;;;42.25;22.35;;;;;;;;;;5027567;28;20022;-75
2022/03/20 09:40:51;;;;;;;40.28;22.00;;;;;;;;;;5026951;28;20148;-74
2022/03/20 09:43:17;;;;;;;37.30;22.15;;;;;;;;;;5029816;28;20100;-74
2022/03/20 09:45:44;;;;;;;41.13;21.45;;;;;;;;;;5031384;28;20022;-74
2022/03/20 09:48:10;;;;;;;37.38;21.25;;;;;;;;;;5029079;28;20071;-75
2022/03/20 09:50:38;;;;;;;41.33;22.10;;;;;;;;;;5028604;28;20456;-74
2022/03/20 09:53:03;;;;;;;44.55;21.50;;;;;;;;;;5029226;28;20104;-74
2022/03/20 09:55:30;;;;;;;37.97;20.42;;;;;;;;;;5029694;28;20120;-73
2022/03/20 09:57:56;;;;;;;37.05;20.80;;;;;;;;;;5028614;28;20040;-75
2022/03/20 10:00:24;;;;;;;42.55;22.27;;;;;;;;;;5026766;28;20041;-75
2022/03/20 10:02:50;;;;;;;38.72;22.45;;;;;;;;;;5028469;28;20033;-75
2022/03/20 10:05:20;;;;;;;34.30;20.90;;;;;;;;;;5028639;28;20029;-74
2022/03/20 10:07:46;;;;;;;39.50;22.35;;;;;;;;;;5028574;28;20033;-75
2022/03/20 10:10:15;;;;;;;40.45;22.15;;;;;;;;;;5024534;28;20036;-75
2022/03/20 10:12:45;;;;;;;39.65;21.63;;;;;;;;;;5022983;28;20127;-75
2022/03/20 10:15:32;;;;;;;38.45;22.55;;;;;;;;;;5027578;28;20048;-74
2022/03/20 10:18:05;;;;;;;41.05;21.67;;;;;;;;;;5028226;28;20029;-76
2022/03/20 10:20:35;;;;;;;39.95;22.42;;;;;;;;;;5028520;28;20111;-76
2022/03/20 10:23:02;;;;;;;36.45;20.95;;;;;;;;;;5029120;28;20021;-75
2022/03/20 10:25:27;;;;;;;56.78;22.50;;;;;;;;;;5026387;28;20025;-74
2022/03/20 10:27:58;;;;;;;37.40;21.42;;;;;;;;;;5029015;28;20441;-73
2022/03/20 10:30:24;;;;;;;34.10;20.87;;;;;;;;;;5029693;28;20037;-75
2022/03/20 10:32:51;;;;;;;38.80;22.63;;;;;;;;;;5028085;28;20034;-74
2022/03/20 10:35:17;;;;;;;38.60;23.23;;;;;;;;;;5028221;28;20037;-74
2022/03/20 10:37:56;;;;;;;36.92;22.73;;;;;;;;;;5029121;28;20033;-74
2022/03/20 10:40:23;;;;;;;35.67;22.52;;;;;;;;;;5018772;28;20451;-77
2022/03/20 10:43:09;;;;;;;38.88;23.48;;;;;;;;;;5028791;28;20025;-76
2022/03/20 10:45:54;;;;;;;39.55;23.00;;;;;;;;;;5029533;28;20175;-73
2022/03/20 10:48:39;;;;;;;41.13;23.88;;;;;;;;;;5028629;28;20075;-75
2022/03/20 10:51:06;;;;;;;43.72;24.17;;;;;;;;;;5024259;28;20034;-75
2022/03/20 10:53:33;;;;;;;39.92;22.75;;;;;;;;;;5028517;28;20037;-77
2022/03/20 10:56:06;;;;;;;37.00;22.67;;;;;;;;;;5028202;28;20040;-75
2022/03/20 10:58:36;;;;;;;42.30;22.38;;;;;;;;;;5029761;28;20119;-75
2022/03/20 11:01:02;;;;;;;41.45;23.88;;;;;;;;;;5023113;28;20087;-75
2022/03/20 11:03:29;;;;;;;40.05;23.42;;;;;;;;;;5028589;28;20048;-74
2022/03/20 11:05:57;;;;;;;36.80;22.67;;;;;;;;;;5024557;28;20040;-74
2022/03/20 11:08:25;;;;;;;44.00;24.08;;;;;;;;;;5034241;28;20060;-75
2022/03/20 11:10:53;;;;;;;41.92;23.75;;;;;;;;;;5026503;28;20030;-74
2022/03/20 11:13:20;;;;;;;39.97;23.42;;;;;;;;;;5023472;28;20040;-74
2022/03/20 11:15:48;;;;;;;45.85;27.08;;;;;;;;;;5028201;28;20048;-75
2022/03/20 11:18:17;;;;;;;39.30;23.42;;;;;;;;;;5027790;28;20033;-75
2022/03/20 11:20:43;;;;;;;44.28;23.60;;;;;;;;;;5028701;28;20037;-76
2022/03/20 11:23:10;;;;;;;42.90;23.77;;;;;;;;;;5030590;28;20050;-76
2022/03/20 11:25:37;;;;;;;41.08;23.77;;;;;;;;;;5028997;28;20064;-76
2022/03/20 11:28:06;;;;;;;47.50;25.08;;;;;;;;;;5029253;28;20036;-76
2022/03/20 11:30:33;;;;;;;41.90;24.85;;;;;;;;;;5025471;28;20032;-74
2022/03/20 11:33:01;;;;;;;45.38;26.63;;;;;;;;;;5028439;28;20102;-75
2022/03/20 11:35:30;;;;;;;40.58;25.17;;;;;;;;;;5028502;28;20057;-74
2022/03/20 11:37:59;;;;;;;51.95;28.02;;;;;;;;;;5016777;28;20030;-75
2022/03/20 11:40:26;;;;;;;51.80;29.60;;;;;;;;;;5028802;28;20044;-75
2022/03/20 11:43:12;;;;;;;51.97;29.70;;;;;;;;;;5029029;28;20444;-74
2022/03/20 11:45:38;;;;;;;50.03;28.60;;;;;;;;;;5025945;28;20026;-75
2022/03/20 11:48:15;;;;;;;48.38;29.25;;;;;;;;;;5024471;28;20037;-75
2022/03/20 11:50:47;;;;;;;54.85;31.02;;;;;;;;;;5029518;28;20038;-75
2022/03/20 11:53:13;;;;;;;49.40;28.08;;;;;;;;;;5027652;28;20025;-74
2022/03/20 11:55:48;;;;;;;54.00;31.25;;;;;;;;;;5023518;28;20027;-75
2022/03/20 11:58:21;;;;;;;46.20;28.55;;;;;;;;;;5025085;28;20033;-74
2022/03/20 12:01:02;;;;;;;47.00;27.25;;;;;;;;;;5027611;28;20597;-75
2022/03/20 12:03:47;;;;;;;46.28;27.30;;;;;;;;;;5028578;28;20021;-75
2022/03/20 12:06:30;;;;;;;49.10;28.15;;;;;;;;;;5022119;28;20290;-75
2022/03/20 12:08:56;;;;;;;49.42;30.05;;;;;;;;;;5028249;28;20025;-74
2022/03/20 12:11:41;;;;;;;44.25;28.23;;;;;;;;;;5023781;28;20036;-75
2022/03/20 12:14:13;;;;;;;44.92;26.58;;;;;;;;;;5026000;28;20025;-75
2022/03/20 12:16:45;;;;;;;46.13;27.77;;;;;;;;;;5028177;28;20025;-75
2022/03/20 12:19:12;;;;;;;43.15;27.23;;;;;;;;;;5024608;28;20064;-74
2022/03/20 12:21:57;;;;;;;47.90;28.08;;;;;;;;;;5029781;28;20088;-75
2022/03/20 12:24:35;;;;;;;46.35;28.05;;;;;;;;;;5024934;28;20038;-74
2022/03/20 12:29:46;;;;;;;45.08;28.08;;;;;;;;;;5029336;28;20036;-77
2022/03/20 12:32:13;;;;;;;46.60;28.45;;;;;;;;;;5040815;28;20487;-74
2022/03/20 12:34:43;;;;;;;46.63;29.50;;;;;;;;;;5026926;28;20044;-75
2022/03/20 12:37:48;;;;;;;44.00;28.63;;;;;;;;;;5024584;28;20025;-75
2022/03/20 12:40:27;;;;;;;43.92;28.02;;;;;;;;;;5022803;28;20042;-75
2022/03/20 12:42:57;;;;;;;47.30;28.85;;;;;;;;;;5020537;28;20514;-75
2022/03/20 12:45:24;;;;;;;46.97;28.42;;;;;;;;;;5018218;28;20030;-75
2022/03/20 12:48:01;;;;;;;47.25;28.60;;;;;;;;;;5022275;28;20493;-75
2022/03/20 12:50:28;;;;;;;44.33;29.13;;;;;;;;;;5022761;28;20436;-75
2022/03/20 12:53:04;;;;;;;47.67;28.80;;;;;;;;;;5019397;28;20034;-76
2022/03/20 12:55:30;;;;;;;42.42;28.38;;;;;;;;;;5019547;28;20048;-75
2022/03/20 12:57:56;;;;;;;44.15;29.40;;;;;;;;;;5019108;28;20057;-76
2022/03/20 13:00:23;;;;;;;53.67;32.20;;;;;;;;;;5020629;28;20427;-75
2022/03/20 13:03:00;;;;;;;48.63;31.75;;;;;;;;;;5027394;28;20033;-75
2022/03/20 13:05:27;;;;;;;50.83;32.80;;;;;;;;;;5026976;28;20071;-75
2022/03/20 13:07:53;;;;;;;54.70;32.33;;;;;;;;;;5024763;28;20148;-74
2022/03/20 13:10:20;;;;;;;50.67;33.15;;;;;;;;;;5023205;28;20041;-75
2022/03/20 13:12:55;;;;;;;52.97;33.72;;;;;;;;;;5025509;28;20379;-75
2022/03/20 13:15:22;;;;;;;51.40;31.90;;;;;;;;;;5025742;28;20116;-74
2022/03/20 13:17:48;;;;;;;57.55;33.92;;;;;;;;;;5022610;28;20088;-75
2022/03/20 13:20:19;;;;;;;53.33;31.85;;;;;;;;;;5019139;28;20029;-75
2022/03/20 13:22:45;;;;;;;52.17;33.95;;;;;;;;;;5020132;28;20030;-76
2022/03/20 13:25:19;;;;;;;57.20;33.65;;;;;;;;;;5023538;28;20050;-76
2022/03/20 13:27:48;;;;;;;53.35;30.90;;;;;;;;;;5019951;28;20044;-74
2022/03/20 13:30:14;;;;;;;53.97;34.08;;;;;;;;;;5021197;28;20104;-74
2022/03/20 13:32:42;;;;;;;57.35;33.97;;;;;;;;;;5021594;28;20029;-74
2022/03/20 13:35:08;;;;;;;57.10;35.47;;;;;;;;;;5025516;28;20064;-74
2022/03/20 13:37:34;;;;;;;51.88;34.40;;;;;;;;;;5023211;28;20061;-75
2022/03/20 13:40:00;;;;;;;58.45;32.92;;;;;;;;;;5020730;28;20029;-75
2022/03/20 13:42:29;;;;;;;55.03;34.63;;;;;;;;;;5024995;28;20048;-75
2022/03/20 13:44:56;;;;;;;56.30;33.92;;;;;;;;;;5023864;28;20027;-74
2022/03/20 13:47:24;;;;;;;55.38;34.45;;;;;;;;;;5023638;28;20025;-76
2022/03/20 13:49:53;;;;;;;52.28;33.08;;;;;;;;;;5020655;28;20487;-75
2022/03/20 13:52:34;;;;;;;52.83;32.95;;;;;;;;;;5021211;28;20033;-74
2022/03/20 13:55:00;;;;;;;52.60;32.90;;;;;;;;;;5015947;28;20105;-75
2022/03/20 13:57:30;;;;;;;54.13;32.13;;;;;;;;;;5024539;28;20169;-74
2022/03/20 14:00:00;;;;;;;50.17;32.70;;;;;;;;;;5020222;28;20030;-75
2022/03/20 14:02:36;;;;;;;52.27;32.80;;;;;;;;;;5022973;28;20447;-74
2022/03/20 14:05:09;;;;;;;57.35;32.55;;;;;;;;;;5023468;28;20555;-74
2022/03/20 14:07:35;;;;;;;51.10;31.60;;;;;;;;;;5020641;28;20025;-76
2022/03/20 14:10:15;;;;;;;54.22;31.90;;;;;;;;;;5000965;28;20502;-74
2022/03/20 14:12:42;;;;;;;52.38;30.70;;;;;;;;;;5022689;28;20463;-72
2022/03/20 14:15:09;;;;;;;53.05;31.70;;;;;;;;;;5024391;28;20038;-74
2022/03/20 14:17:40;;;;;;;51.50;31.50;;;;;;;;;;5018919;28;20036;-75
2022/03/20 14:20:09;;;;;;;50.70;30.23;;;;;;;;;;5022871;28;20491;-77
2022/03/20 14:22:46;;;;;;;49.47;31.73;;;;;;;;;;5022172;28;20026;-75
2022/03/20 14:25:29;;;;;;;50.53;31.95;;;;;;;;;;5020948;28;20045;-76
2022/03/20 14:27:59;;;;;;;53.38;32.67;;;;;;;;;;5020894;28;20138;-74
2022/03/20 14:41:51;;;;;;;44.53;30.17;;;;;;;;;;5024548;28;20379;-75
2022/03/20 14:44:18;;;;;;;50.33;32.30;;;;;;;;;;5024488;28;20116;-74
2022/03/20 14:46:47;;;;;;;48.35;31.38;;;;;;;;;;5024294;28;20041;-75
2022/03/20 14:49:13;;;;;;;51.28;31.65;;;;;;;;;;5026607;28;20029;-74
2022/03/20 14:51:41;;;;;;;70.00;38.88;;;;;;;;;;5020950;28;20107;-78
2022/03/20 14:54:08;;;;;;;48.28;30.88;;;;;;;;;;5023597;28;20022;-75
2022/03/20 14:56:34;;;;;;;44.92;30.30;;;;;;;;;;5026141;28;20060;-74
2022/03/20 14:59:00;;;;;;;45.25;30.58;;;;;;;;;;5020402;28;20033;-75
2022/03/20 15:01:27;;;;;;;46.03;29.92;;;;;;;;;;5019904;28;20022;-76
2022/03/20 15:03:53;;;;;;;45.25;30.85;;;;;;;;;;5018233;28;20041;-74
2022/03/20 15:06:22;;;;;;;46.38;30.77;;;;;;;;;;5019325;28;20085;-75
2022/03/20 15:11:33;;;;;;;42.88;29.75;;;;;;;;;;5025720;28;20116;-75
2022/03/20 15:14:00;;;;;;;44.85;30.58;;;;;;;;;;5022051;28;20041;-75